Wilford, Idaho
Current Conditions -  °F | °C
As of 1:16 PM on Wednesday 28 Jan 2015 (Local Time) from KRXE Reporting Station
Haze Haze  
Wind Chill: 29°   Ceiling: 300
Heat Index: 35°   Visibility: 2.5mi
Dew Point: 35°   Wind: 8mph
Humidity: 100%   Direction: 220°SW
Pressure: 30.29"   Gusts: NA
Location:  44.2887°N, 111.507°W
Report Text: KRXE 282016Z AUTO 22007KT 2 1/2SM BR BKN003 OVC007 02/02 A3029 RMK AO2 T00170017
Loading
Personal Weather Stations






























Interactive Weather Map New forecast layout! Learn more

10-Day Weather Forecast

Advertisements
Track Severe Weather on mobile